createdAt,value
2019-01-19T00:00:34.401Z,101655.67
2019-01-19T00:03:08.864Z,101660.02
2019-01-19T00:05:40.370Z,101651.43
2019-01-19T00:08:14.772Z,101655.92
2019-01-19T00:11:01.115Z,101656.95
2019-01-19T00:13:35.342Z,101659.23
2019-01-19T00:16:15.990Z,101657.81
2019-01-19T00:19:16.281Z,101658.34
2019-01-19T00:21:53.667Z,101655.40
2019-01-19T00:24:25.181Z,101652.19
2019-01-19T00:27:19.226Z,101656.95
2019-01-19T00:30:17.907Z,101652.83
2019-01-19T00:33:04.600Z,101658.09
2019-01-19T00:35:45.040Z,101657.18
2019-01-19T00:38:16.543Z,101655.36
2019-01-19T00:41:00.010Z,101658.70
2019-01-19T00:43:29.120Z,101652.30
2019-01-19T00:46:09.368Z,101651.28
2019-01-19T00:48:53.079Z,101650.78
2019-01-19T00:51:27.240Z,101650.78
2019-01-19T00:54:01.309Z,101649.50
2019-01-19T00:57:00.101Z,101652.55
2019-01-19T00:59:30.621Z,101651.52
2019-01-19T01:02:02.107Z,101654.62
2019-01-19T01:04:42.594Z,101651.52
2019-01-19T01:07:20.072Z,101647.83
2019-01-19T01:10:03.797Z,101647.19
2019-01-19T01:12:51.745Z,101653.09
2019-01-19T01:15:25.911Z,101659.73
2019-01-19T01:17:56.809Z,101652.20
2019-01-19T01:20:30.973Z,101655.40
2019-01-19T01:23:20.655Z,101658.98
2019-01-19T01:26:17.816Z,101654.72
2019-01-19T01:29:01.024Z,101661.27
2019-01-19T01:31:35.323Z,101661.41
2019-01-19T01:34:18.663Z,101660.52
2019-01-19T01:37:14.142Z,101665.50
2019-01-19T01:39:54.313Z,101663.36
2019-01-19T01:42:48.218Z,101658.98
2019-01-19T01:45:25.268Z,101662.58
2019-01-19T01:48:18.030Z,101663.36
2019-01-19T01:50:55.157Z,101664.25
2019-01-19T01:53:32.355Z,101656.16
2019-01-19T01:56:00.887Z,101659.51
2019-01-19T01:58:32.373Z,101658.09
2019-01-19T02:01:09.861Z,101656.95
2019-01-19T02:04:13.601Z,101658.23
2019-01-19T02:07:06.510Z,101655.78
2019-01-19T02:09:44.202Z,101658.48
2019-01-19T02:12:27.699Z,101656.54
2019-01-19T02:15:11.127Z,101647.60
2019-01-19T02:17:48.290Z,101646.93
2019-01-19T02:20:25.403Z,101656.06
2019-01-19T02:23:29.211Z,101654.12
2019-01-19T02:26:03.355Z,101652.61
2019-01-19T02:28:43.937Z,101652.86
2019-01-19T02:31:24.443Z,101649.00
2019-01-19T02:34:10.665Z,101650.02
2019-01-19T02:37:01.880Z,101650.02
2019-01-19T02:39:38.629Z,101652.33
2019-01-19T02:42:19.313Z,101654.11
2019-01-19T02:45:22.027Z,101648.50
2019-01-19T02:48:07.876Z,101649.50
2019-01-19T02:50:44.863Z,101647.83
2019-01-19T02:53:31.260Z,101647.93
2019-01-19T02:56:02.793Z,101649.99
2019-01-19T02:58:37.017Z,101652.59
2019-01-19T03:01:31.072Z,101649.50
2019-01-19T03:04:17.613Z,101647.97
2019-01-19T03:07:01.158Z,101646.66
2019-01-19T03:09:53.318Z,101645.12
2019-01-19T03:12:37.127Z,101646.16
2019-01-19T03:15:17.408Z,101642.17
2019-01-19T03:17:57.794Z,101632.71
2019-01-19T03:20:35.520Z,101639.50
2019-01-19T03:23:09.902Z,101637.44
2019-01-19T03:25:50.252Z,101641.67
2019-01-19T03:28:36.873Z,101640.25
2019-01-19T03:31:30.877Z,101634.59
2019-01-19T03:34:02.393Z,101641.38
2019-01-19T03:36:45.831Z,101641.38
2019-01-19T03:39:35.951Z,101640.69
2019-01-19T03:42:16.709Z,101638.92
2019-01-19T03:44:59.800Z,101642.82
2019-01-19T03:47:34.149Z,101645.23
2019-01-19T03:50:08.546Z,101652.47
2019-01-19T03:52:42.966Z,101650.79
2019-01-19T03:55:29.461Z,101658.56
2019-01-19T03:58:00.968Z,101653.67
2019-01-19T04:00:46.977Z,101651.86
2019-01-19T04:03:33.476Z,101657.98
2019-01-19T04:06:21.292Z,101655.44
2019-01-19T04:08:58.035Z,101654.64
2019-01-19T04:11:47.526Z,101662.09
2019-01-19T04:14:37.103Z,101659.86
2019-01-19T04:17:27.997Z,101650.67
2019-01-19T04:20:18.327Z,101659.13
2019-01-19T04:22:47.009Z,101655.05
2019-01-19T04:25:18.535Z,101661.20
2019-01-19T04:27:46.997Z,101659.52
2019-01-19T04:30:15.574Z,101660.56
2019-01-19T04:32:43.999Z,101647.63
2019-01-19T04:35:12.474Z,101651.71
2019-01-19T04:37:40.903Z,101646.59
2019-01-19T04:40:12.231Z,101650.83
2019-01-19T04:42:42.433Z,101651.84
2019-01-19T04:45:11.039Z,101645.77
2019-01-19T04:47:39.466Z,101655.47
2019-01-19T04:50:10.584Z,101658.08
2019-01-19T04:52:39.058Z,101660.34
2019-01-19T04:55:07.998Z,101660.17
2019-01-19T04:57:36.433Z,101659.23
2019-01-19T05:00:17.869Z,101657.72
2019-01-19T05:02:46.471Z,101663.39
2019-01-19T05:05:14.953Z,101653.54
2019-01-19T05:07:43.382Z,101647.63
2019-01-19T05:10:13.080Z,101647.33
2019-01-19T05:12:41.546Z,101646.03
2019-01-19T05:15:12.952Z,101650.02
2019-01-19T05:17:41.405Z,101651.63
2019-01-19T05:20:12.298Z,101653.69
2019-01-19T05:22:40.749Z,101653.22
2019-01-19T05:25:11.340Z,101654.33
2019-01-19T05:27:39.800Z,101646.27
2019-01-19T05:30:18.882Z,101653.99
2019-01-19T05:32:47.488Z,101653.28
2019-01-19T05:35:15.948Z,101655.58
2019-01-19T05:37:44.416Z,101658.08
2019-01-19T05:40:13.714Z,101662.23
2019-01-19T05:42:42.312Z,101655.30
2019-01-19T05:45:13.222Z,101652.88
2019-01-19T05:47:41.685Z,101651.31
2019-01-19T05:50:15.620Z,101651.95
2019-01-19T05:52:44.170Z,101652.20
2019-01-19T05:55:12.653Z,101651.03
2019-01-19T05:57:41.110Z,101660.39
2019-01-19T06:00:12.636Z,101653.03
2019-01-19T06:02:48.320Z,101651.56
2019-01-19T06:05:28.630Z,101656.92
2019-01-19T06:07:59.843Z,101655.28
2019-01-19T06:10:28.248Z,101658.81
2019-01-19T06:12:56.701Z,101661.88
2019-01-19T06:15:25.279Z,101662.95
2019-01-19T06:17:53.754Z,101664.23
2019-01-19T06:20:22.356Z,101666.27
2019-01-19T06:22:50.824Z,101666.06
2019-01-19T06:25:19.342Z,101666.09
2019-01-19T06:27:47.838Z,101664.58
2019-01-19T06:30:21.602Z,101662.27
2019-01-19T06:32:50.081Z,101674.41
2019-01-19T06:35:18.686Z,101672.65
2019-01-19T06:37:47.147Z,101668.07
2019-01-19T06:40:17.426Z,101671.06
2019-01-19T06:42:46.144Z,101668.66
2019-01-19T06:45:19.389Z,101673.08
2019-01-19T06:47:47.852Z,101670.12
2019-01-19T06:50:17.326Z,101674.48
2019-01-19T06:52:46.079Z,101674.00
2019-01-19T06:55:17.498Z,101670.05
2019-01-19T06:57:45.955Z,101674.77
2019-01-19T07:00:17.238Z,101677.26
2019-01-19T07:02:45.934Z,101676.27
2019-01-19T07:05:14.542Z,101677.86
2019-01-19T07:07:43.157Z,101675.17
2019-01-19T07:10:14.297Z,101686.33
2019-01-19T07:12:42.748Z,101686.83
2019-01-19T07:15:12.436Z,101682.98
2019-01-19T07:17:40.888Z,101684.73
2019-01-19T07:20:14.772Z,101687.22
2019-01-19T07:22:43.228Z,101687.72
2019-01-19T07:25:11.665Z,101695.39
2019-01-19T07:27:40.126Z,101698.30
2019-01-19T07:30:14.398Z,101698.17
2019-01-19T07:32:43.071Z,101700.05
2019-01-19T07:35:11.761Z,101694.05
2019-01-19T07:37:40.215Z,101703.34
2019-01-19T07:40:11.613Z,101698.98
2019-01-19T07:42:41.482Z,101704.41
2019-01-19T07:45:12.187Z,101709.48
2019-01-19T07:47:41.697Z,101706.41
2019-01-19T07:50:12.800Z,101704.58
2019-01-19T07:52:41.275Z,101708.83
2019-01-19T07:55:12.147Z,101715.48
2019-01-19T07:57:40.587Z,101712.27
2019-01-19T08:00:12.095Z,101712.68
2019-01-19T08:02:40.696Z,101716.48
2019-01-19T08:05:11.139Z,101718.91
2019-01-19T08:07:39.595Z,101725.19
2019-01-19T08:10:11.169Z,101717.56
2019-01-19T08:12:39.615Z,101715.48
2019-01-19T08:15:11.145Z,101720.12
2019-01-19T08:17:39.741Z,101719.31
2019-01-19T08:20:11.613Z,101718.69
2019-01-19T08:22:40.069Z,101715.28
2019-01-19T08:25:10.275Z,101718.73
2019-01-19T08:27:39.173Z,101721.52
2019-01-19T08:30:21.995Z,101724.30
2019-01-19T08:32:50.425Z,101728.98
2019-01-19T08:35:19.090Z,101729.73
2019-01-19T08:37:48.304Z,101730.31
2019-01-19T08:40:31.342Z,101737.02
2019-01-19T08:43:01.450Z,101735.08
2019-01-19T08:45:29.905Z,101738.95
2019-01-19T08:47:58.927Z,101737.44
2019-01-19T08:50:27.424Z,101736.84
2019-01-19T08:52:55.827Z,101737.47
2019-01-19T08:55:24.302Z,101739.37
2019-01-19T08:57:52.755Z,101732.66
2019-01-19T09:00:21.882Z,101733.26
2019-01-19T09:02:50.339Z,101738.40
2019-01-19T09:05:18.868Z,101739.08
2019-01-19T09:07:47.304Z,101737.82
2019-01-19T09:10:19.472Z,101737.99
2019-01-19T09:12:47.909Z,101740.48
2019-01-19T09:15:21.989Z,101736.27
2019-01-19T09:17:50.440Z,101734.23
2019-01-19T09:20:19.277Z,101737.09
2019-01-19T09:22:49.478Z,101729.98
2019-01-19T09:25:17.927Z,101730.53
2019-01-19T09:27:46.418Z,101733.34
2019-01-19T09:30:20.055Z,101733.09
2019-01-19T09:32:48.523Z,101733.09
2019-01-19T09:35:17.315Z,101732.88
2019-01-19T09:37:46.954Z,101729.58
2019-01-19T09:40:16.917Z,101730.32
2019-01-19T09:42:45.745Z,101728.57
2019-01-19T09:45:16.526Z,101730.38
2019-01-19T09:47:45.002Z,101729.34
2019-01-19T09:50:15.830Z,101724.49
2019-01-19T09:52:44.308Z,101723.36
2019-01-19T09:55:12.908Z,101725.02
2019-01-19T09:57:41.372Z,101722.97
2019-01-19T10:00:13.130Z,101720.94
2019-01-19T10:02:41.611Z,101720.95
2019-01-19T10:05:15.818Z,101727.10
2019-01-19T10:07:48.396Z,101728.63
2019-01-19T10:10:14.887Z,101722.48
2019-01-19T10:12:43.370Z,101719.17
2019-01-19T10:15:14.459Z,101718.14
2019-01-19T10:17:42.964Z,101718.67
2019-01-19T10:20:20.312Z,101721.09
2019-01-19T10:22:48.788Z,101720.70
2019-01-19T10:25:17.604Z,101721.63
2019-01-19T10:27:46.208Z,101717.15
2019-01-19T10:30:17.340Z,101717.68
2019-01-19T10:32:45.886Z,101715.62
2019-01-19T10:35:15.461Z,101718.68
2019-01-19T10:37:43.924Z,101712.80
2019-01-19T10:40:14.799Z,101713.58
2019-01-19T10:42:43.271Z,101706.28
2019-01-19T10:45:17.097Z,101708.07
2019-01-19T10:47:45.705Z,101711.27
2019-01-19T10:50:16.603Z,101709.73
2019-01-19T10:52:45.290Z,101703.45
2019-01-19T10:55:16.201Z,101703.84
2019-01-19T10:57:44.696Z,101705.88
2019-01-19T11:00:27.471Z,101704.58
2019-01-19T11:02:56.847Z,101698.42
2019-01-19T11:05:25.430Z,101698.42
2019-01-19T11:07:54.149Z,101699.45
2019-01-19T11:10:25.043Z,101690.73
2019-01-19T11:12:53.524Z,101691.50
2019-01-19T11:15:21.996Z,101681.76
2019-01-19T11:17:50.445Z,101690.20
2019-01-19T11:20:21.638Z,101683.65
2019-01-19T11:22:50.105Z,101682.23
2019-01-19T11:25:21.559Z,101680.55
2019-01-19T11:27:50.022Z,101678.14
2019-01-19T11:30:20.868Z,101680.81
2019-01-19T11:32:49.274Z,101670.98
2019-01-19T11:35:18.462Z,101673.48
2019-01-19T11:37:46.932Z,101668.06
2019-01-19T11:40:18.462Z,101662.66
2019-01-19T11:42:47.249Z,101658.21
2019-01-19T11:45:20.788Z,101658.06
2019-01-19T11:47:49.300Z,101648.06
2019-01-19T11:50:19.392Z,101652.19
2019-01-19T11:52:48.181Z,101644.18
2019-01-19T11:55:19.393Z,101645.55
2019-01-19T11:57:50.297Z,101636.54
2019-01-19T12:00:33.288Z,101642.27
2019-01-19T12:03:01.755Z,101639.11
2019-01-19T12:05:32.853Z,101636.98
2019-01-19T12:08:02.420Z,101632.70
2019-01-19T12:10:31.774Z,101629.81
2019-01-19T12:13:00.505Z,101628.50
2019-01-19T12:15:29.223Z,101629.61
2019-01-19T12:17:58.128Z,101632.58
2019-01-19T12:20:30.761Z,101628.47
2019-01-19T12:22:59.376Z,101629.78
2019-01-19T12:25:28.100Z,101629.52
2019-01-19T12:27:56.585Z,101630.67
2019-01-19T12:30:29.759Z,101626.06
2019-01-19T12:32:58.278Z,101628.00
2019-01-19T12:35:26.892Z,101620.43
2019-01-19T12:37:55.682Z,101620.22
2019-01-19T12:40:26.191Z,101620.66
2019-01-19T12:42:57.608Z,101619.28
2019-01-19T12:45:32.483Z,101617.44
2019-01-19T12:48:01.041Z,101612.05
2019-01-19T12:50:29.481Z,101609.67
2019-01-19T12:52:57.925Z,101606.67
2019-01-19T12:55:26.452Z,101607.20
2019-01-19T12:57:54.931Z,101606.34
2019-01-19T13:00:26.123Z,101607.37
2019-01-19T13:02:55.409Z,101608.34
2019-01-19T13:05:33.160Z,101611.94
2019-01-19T13:08:01.903Z,101613.71
2019-01-19T13:10:33.842Z,101608.80
2019-01-19T13:13:03.490Z,101608.54
2019-01-19T13:15:50.152Z,101604.16
2019-01-19T13:18:39.983Z,101602.30
2019-01-19T13:21:37.274Z,101609.29
2019-01-19T13:24:11.720Z,101606.87
2019-01-19T13:27:13.971Z,101605.10
2019-01-19T13:30:02.272Z,101596.08
2019-01-19T13:32:42.732Z,101598.97
2019-01-19T13:35:30.784Z,101597.38
2019-01-19T13:38:08.098Z,101595.25
2019-01-19T13:40:42.150Z,101600.56
2019-01-19T13:43:41.151Z,101596.05
2019-01-19T13:46:35.215Z,101589.95
2019-01-19T13:49:23.302Z,101593.56
2019-01-19T13:51:54.906Z,101593.61
2019-01-19T13:54:41.512Z,101588.12
2019-01-19T13:57:31.110Z,101589.94
2019-01-19T14:00:08.296Z,101586.27
2019-01-19T14:02:45.472Z,101588.75
2019-01-19T14:05:28.702Z,101588.66
2019-01-19T14:08:11.478Z,101584.85
2019-01-19T14:11:15.154Z,101585.73
2019-01-19T14:13:58.753Z,101588.48
2019-01-19T14:16:30.344Z,101584.58
2019-01-19T14:19:04.654Z,101585.38
2019-01-19T14:21:45.068Z,101584.76
2019-01-19T14:24:25.874Z,101584.80
2019-01-19T14:27:15.980Z,101576.88
2019-01-19T14:29:53.502Z,101578.07
2019-01-19T14:32:43.112Z,101576.03
2019-01-19T14:35:14.600Z,101576.83
2019-01-19T14:37:48.848Z,101577.13
2019-01-19T14:40:29.321Z,101577.89
2019-01-19T14:43:30.014Z,101577.39
2019-01-19T14:46:12.845Z,101574.60
2019-01-19T14:48:50.091Z,101580.30
2019-01-19T14:51:39.525Z,101579.21
2019-01-19T14:54:23.352Z,101575.26
2019-01-19T14:57:06.832Z,101574.89
2019-01-19T14:59:49.588Z,101573.77
2019-01-19T15:02:29.883Z,101570.96
2019-01-19T15:05:07.287Z,101572.78
2019-01-19T15:07:59.772Z,101570.25
2019-01-19T15:10:43.117Z,101577.70
2019-01-19T15:13:14.665Z,101567.45
2019-01-19T15:16:02.579Z,101575.93
2019-01-19T15:18:36.932Z,101572.36
2019-01-19T15:21:19.922Z,101570.83
2019-01-19T15:23:54.207Z,101573.64
2019-01-19T15:26:31.829Z,101577.77
2019-01-19T15:29:12.106Z,101574.67
2019-01-19T15:31:49.526Z,101577.01
2019-01-19T15:34:25.353Z,101570.88
2019-01-19T15:37:19.427Z,101572.28
2019-01-19T15:40:08.841Z,101566.64
2019-01-19T15:42:48.382Z,101565.73
2019-01-19T15:45:22.690Z,101566.92
2019-01-19T15:48:15.198Z,101567.67
2019-01-19T15:51:14.216Z,101562.17
2019-01-19T15:53:51.471Z,101562.44
2019-01-19T15:56:35.004Z,101564.73
2019-01-19T15:59:27.079Z,101556.55
2019-01-19T16:02:13.598Z,101557.56
2019-01-19T16:04:54.180Z,101554.23
2019-01-19T16:07:34.543Z,101547.83
2019-01-19T16:10:17.935Z,101556.28
2019-01-19T16:12:52.481Z,101553.98
2019-01-19T16:15:29.240Z,101551.30
2019-01-19T16:18:26.436Z,101550.14
2019-01-19T16:20:57.947Z,101550.91
2019-01-19T16:23:41.463Z,101550.39
2019-01-19T16:26:15.827Z,101549.90
2019-01-19T16:28:53.123Z,101558.59
2019-01-19T16:31:33.614Z,101558.34
2019-01-19T16:34:17.154Z,101560.39
2019-01-19T16:37:07.063Z,101554.26
2019-01-19T16:40:01.233Z,101556.94
2019-01-19T16:42:35.832Z,101557.05
2019-01-19T16:45:18.798Z,101560.78
2019-01-19T16:47:53.223Z,101561.40
2019-01-19T16:50:40.945Z,101560.66
2019-01-19T16:53:20.802Z,101555.78
2019-01-19T16:56:10.408Z,101551.68
2019-01-19T16:58:57.097Z,101559.62
2019-01-19T17:01:39.933Z,101553.61
2019-01-19T17:04:29.754Z,101555.27
2019-01-19T17:07:10.872Z,101551.30
2019-01-19T17:09:48.096Z,101549.35
2019-01-19T17:12:42.266Z,101553.59
2019-01-19T17:15:40.872Z,101552.58
2019-01-19T17:18:15.154Z,101553.83
2019-01-19T17:21:12.206Z,101549.56
2019-01-19T17:23:46.681Z,101546.76
2019-01-19T17:26:48.821Z,101546.76
2019-01-19T17:29:41.211Z,101544.48
2019-01-19T17:32:24.588Z,101554.17
2019-01-19T17:35:14.026Z,101545.48
2019-01-19T17:37:53.057Z,101548.03
2019-01-19T17:40:24.965Z,101549.31
2019-01-19T17:43:02.696Z,101544.73
2019-01-19T17:45:45.862Z,101548.81
2019-01-19T17:48:26.442Z,101554.11
2019-01-19T17:51:28.051Z,101553.80
2019-01-19T17:54:25.007Z,101559.62
2019-01-19T17:57:05.318Z,101561.99
2019-01-19T17:59:56.691Z,101560.71
2019-01-19T18:02:37.271Z,101562.75
2019-01-19T18:05:18.445Z,101559.39
2019-01-19T18:07:52.997Z,101564.50
2019-01-19T18:10:33.634Z,101559.29
2019-01-19T18:13:11.384Z,101556.89
2019-01-19T18:15:48.636Z,101562.46
2019-01-19T18:18:22.969Z,101559.36
2019-01-19T18:21:06.519Z,101565.89
2019-01-19T18:23:49.862Z,101560.13
2019-01-19T18:26:30.274Z,101563.45
2019-01-19T18:29:21.216Z,101562.30
2019-01-19T18:32:14.091Z,101569.89
2019-01-19T18:34:57.373Z,101562.12
2019-01-19T18:37:31.407Z,101565.44
2019-01-19T18:40:06.420Z,101565.89
2019-01-19T18:42:49.827Z,101561.47
2019-01-19T18:45:26.818Z,101558.45
2019-01-19T18:47:58.381Z,101562.26
2019-01-19T18:50:32.693Z,101562.28
2019-01-19T18:53:27.788Z,101558.50
2019-01-19T18:56:07.831Z,101556.10
2019-01-19T18:58:45.018Z,101562.71
2019-01-19T19:01:19.359Z,101559.75
2019-01-19T19:03:56.694Z,101559.69
2019-01-19T19:06:47.755Z,101561.09
2019-01-19T19:09:37.129Z,101554.60
2019-01-19T19:12:31.268Z,101555.11
2019-01-19T19:15:19.399Z,101556.72
2019-01-19T19:18:05.980Z,101553.01
2019-01-19T19:20:40.508Z,101556.30
2019-01-19T19:23:21.335Z,101553.75
2019-01-19T19:26:07.724Z,101558.70
2019-01-19T19:28:57.386Z,101554.59
2019-01-19T19:31:28.920Z,101550.12
2019-01-19T19:34:12.366Z,101553.45
2019-01-19T19:36:55.676Z,101553.84
2019-01-19T19:40:00.259Z,101549.62
2019-01-19T19:42:46.437Z,101549.31
2019-01-19T19:45:33.071Z,101555.16
2019-01-19T19:48:22.466Z,101549.20
2019-01-19T19:50:56.650Z,101556.55
2019-01-19T19:53:25.119Z,101551.84
2019-01-19T19:55:52.478Z,101554.61
2019-01-19T19:58:20.998Z,101554.42
2019-01-19T20:00:50.718Z,101550.87
2019-01-19T20:03:19.216Z,101548.32
2019-01-19T20:05:47.715Z,101548.89
2019-01-19T20:08:16.223Z,101549.78
2019-01-19T20:10:46.337Z,101544.18
2019-01-19T20:13:14.831Z,101549.97
2019-01-19T20:15:43.358Z,101550.55
2019-01-19T20:18:11.845Z,101546.61
2019-01-19T20:20:41.447Z,101539.58
2019-01-19T20:23:09.946Z,101542.41
2019-01-19T20:25:38.440Z,101542.78
2019-01-19T20:28:06.956Z,101551.39
2019-01-19T20:30:45.269Z,101543.55
2019-01-19T20:33:13.749Z,101547.61
2019-01-19T20:35:43.793Z,101541.42
2019-01-19T20:38:12.268Z,101545.77
2019-01-19T20:40:40.758Z,101544.83
2019-01-19T20:43:09.228Z,101551.66
2019-01-19T20:45:37.723Z,101553.08
2019-01-19T20:48:06.199Z,101555.91
2019-01-19T20:50:34.681Z,101555.27
2019-01-19T20:53:03.197Z,101551.14
2019-01-19T20:55:31.675Z,101554.04
2019-01-19T20:58:00.288Z,101555.47
2019-01-19T21:00:28.859Z,101553.20
2019-01-19T21:02:59.598Z,101551.27
2019-01-19T21:05:28.110Z,101555.14
2019-01-19T21:07:56.691Z,101556.94
2019-01-19T21:10:31.556Z,101547.19
2019-01-19T21:12:55.382Z,101553.17
2019-01-19T21:15:25.081Z,101552.39
2019-01-19T21:17:55.819Z,101537.55
2019-01-19T21:20:23.776Z,101544.38
2019-01-19T21:22:52.303Z,101552.48
2019-01-19T21:25:20.772Z,101552.84
2019-01-19T21:27:49.285Z,101554.46
2019-01-19T21:30:18.272Z,101543.91
2019-01-19T21:32:46.753Z,101549.31
2019-01-19T21:35:15.407Z,101546.45
2019-01-19T21:37:43.957Z,101545.48
2019-01-19T21:40:14.049Z,101544.61
2019-01-19T21:42:42.538Z,101544.69
2019-01-19T21:45:16.814Z,101539.20
2019-01-19T21:47:45.329Z,101540.18
2019-01-19T21:50:13.849Z,101542.07
2019-01-19T21:52:42.360Z,101540.41
2019-01-19T21:55:11.352Z,101543.13
2019-01-19T21:57:40.153Z,101539.74
2019-01-19T22:00:14.522Z,101544.02
2019-01-19T22:02:43.038Z,101544.61
2019-01-19T22:05:11.689Z,101547.98
2019-01-19T22:07:40.201Z,101541.57
2019-01-19T22:10:20.126Z,101543.23
2019-01-19T22:12:48.609Z,101540.97
2019-01-19T22:15:18.831Z,101537.25
2019-01-19T22:17:47.327Z,101540.14
2019-01-19T22:20:17.637Z,101541.64
2019-01-19T22:22:46.149Z,101538.30
2019-01-19T22:25:14.884Z,101538.42
2019-01-19T22:27:44.984Z,101540.36
2019-01-19T22:30:19.290Z,101530.40
2019-01-19T22:32:49.134Z,101531.16
2019-01-19T22:35:17.687Z,101528.50
2019-01-19T22:37:46.154Z,101530.78
2019-01-19T22:40:17.422Z,101530.44
2019-01-19T22:42:48.590Z,101525.47
2019-01-19T22:45:17.607Z,101527.63
2019-01-19T22:47:46.237Z,101524.04
2019-01-19T22:50:16.466Z,101529.83
2019-01-19T22:52:45.027Z,101524.80
2019-01-19T22:55:13.851Z,101530.88
2019-01-19T22:57:42.308Z,101526.99
2019-01-19T23:00:24.213Z,101526.89
2019-01-19T23:02:52.686Z,101524.06
2019-01-19T23:05:21.199Z,101523.62
2019-01-19T23:07:49.675Z,101524.20
2019-01-19T23:10:18.186Z,101519.04
2019-01-19T23:12:46.654Z,101522.51
2019-01-19T23:15:15.629Z,101516.59
2019-01-19T23:17:44.101Z,101516.05
2019-01-19T23:20:12.905Z,101516.37
2019-01-19T23:22:41.358Z,101514.33
2019-01-19T23:25:10.011Z,101505.80
2019-01-19T23:27:38.462Z,101511.11
2019-01-19T23:30:09.975Z,101512.09
2019-01-19T23:32:38.482Z,101509.77
2019-01-19T23:35:08.642Z,101507.77
2019-01-19T23:37:37.099Z,101508.59
2019-01-19T23:40:08.632Z,101507.53
2019-01-19T23:42:37.102Z,101506.77
2019-01-19T23:45:08.662Z,101510.68
2019-01-19T23:47:37.106Z,101501.63
2019-01-19T23:50:08.380Z,101501.16
2019-01-19T23:52:36.840Z,101504.01
2019-01-19T23:55:06.430Z,101498.63
2019-01-19T23:57:35.061Z,101502.29
